Time;durP1;ratioP1;P1;durP2;ratioP2;P2;SDS_P1;SDS_P2;PMS_P1;PMS_P2;Temp;Humidity;BMP_temperature;BMP_pressure;BME280_temperature;BME280_humidity;BME280_pressure;Samples;Min_cycle;Max_cycle;Signal;HPM_P1;HPM_P2
2022/05/24 00:00:58;;;;;;;32.70;20.95;;;;;;;14.89;92.21;99474.66;6100464;23;20073;-90
2022/05/24 00:03:25;;;;;;;29.45;20.60;;;;;;;14.96;92.27;99498.31;6100529;23;20029;-90
2022/05/24 00:05:52;;;;;;;29.42;19.75;;;;;;;14.90;92.29;99497.34;6099740;23;20037;-89
2022/05/24 00:08:22;;;;;;;28.50;20.83;;;;;;;15.01;92.31;99508.22;6099297;23;20058;-89
2022/05/24 00:10:49;;;;;;;29.80;21.08;;;;;;;14.88;92.83;99480.13;6100032;23;20180;-90
2022/05/24 00:13:16;;;;;;;31.73;20.92;;;;;;;14.97;92.03;99480.69;6099686;23;20025;-90
2022/05/24 00:15:49;;;;;;;30.60;22.10;;;;;;;15.04;92.39;99510.44;6099597;23;20029;-86
2022/05/24 00:18:25;;;;;;;26.15;19.90;;;;;;;14.92;92.54;99492.66;6098754;23;20408;-87
2022/05/24 00:20:57;;;;;;;28.65;21.17;;;;;;;14.93;93.29;99491.66;6100105;23;20014;-88
2022/05/24 00:23:33;;;;;;;27.23;20.50;;;;;;;14.98;91.94;99477.84;6099209;23;20037;-88
2022/05/24 00:26:05;;;;;;;26.48;20.02;;;;;;;14.83;92.08;99464.97;6099583;23;20022;-88
2022/05/24 00:28:33;;;;;;;24.58;19.70;;;;;;;14.87;91.86;99478.53;6098456;23;20022;-88
2022/05/24 00:31:01;;;;;;;26.67;20.17;;;;;;;14.89;91.74;99473.84;6098828;23;20014;-90
2022/05/24 00:33:31;;;;;;;23.67;18.77;;;;;;;15.00;92.12;99490.81;6099165;23;20026;-88
2022/05/24 00:35:58;;;;;;;24.38;18.05;;;;;;;14.90;92.11;99463.09;6100833;23;20023;-89
2022/05/24 00:38:27;;;;;;;24.35;18.73;;;;;;;14.90;92.25;99481.53;6099853;23;20022;-89
2022/05/24 00:41:10;;;;;;;23.65;19.10;;;;;;;14.78;92.97;99472.69;6101446;23;20022;-89
2022/05/24 00:43:41;;;;;;;22.67;18.38;;;;;;;14.82;92.80;99463.34;6100283;23;20037;-88
2022/05/24 00:46:12;;;;;;;26.55;19.17;;;;;;;14.76;93.48;99466.81;6099404;23;20102;-88
2022/05/24 00:48:49;;;;;;;26.33;19.30;;;;;;;14.82;93.20;99470.44;6099585;23;20033;-89
2022/05/24 00:51:25;;;;;;;21.88;18.15;;;;;;;14.77;94.00;99476.34;6100871;23;20033;-89
2022/05/24 00:53:55;;;;;;;26.52;19.23;;;;;;;14.62;93.81;99454.78;6099901;23;20018;-89
2022/05/24 00:56:41;;;;;;;23.42;18.52;;;;;;;14.72;93.71;99465.63;6101814;23;20026;-90
2022/05/24 00:59:09;;;;;;;21.75;18.77;;;;;;;14.72;94.25;99463.00;6100947;23;20026;-89
2022/05/24 01:01:40;;;;;;;24.73;18.98;;;;;;;14.82;94.51;99478.34;6101624;23;20077;-89
2022/05/24 01:04:11;;;;;;;25.30;18.52;;;;;;;14.79;94.42;99473.50;6101976;23;20046;-90
2022/05/24 01:06:42;;;;;;;22.38;17.88;;;;;;;14.64;94.54;99465.91;6102582;23;20094;-90
2022/05/24 01:09:15;;;;;;;24.25;19.00;;;;;;;14.79;94.41;99479.56;6102371;23;20022;-90
2022/05/24 01:11:46;;;;;;;22.80;17.73;;;;;;;14.76;94.19;99461.56;6102153;23;20394;-89
2022/05/24 01:14:20;;;;;;;23.08;17.60;;;;;;;14.81;94.20;99482.00;6102306;23;20029;-90
2022/05/24 01:16:51;;;;;;;22.27;18.00;;;;;;;14.71;94.91;99487.72;6101844;23;20313;-90
2022/05/24 01:19:41;;;;;;;20.73;17.30;;;;;;;14.65;94.86;99480.66;6101241;23;20097;-89
2022/05/24 01:22:27;;;;;;;21.10;16.77;;;;;;;14.79;94.29;99497.19;6103856;23;20025;-89
2022/05/24 01:25:02;;;;;;;19.67;16.40;;;;;;;14.78;94.11;99487.69;6104099;23;20029;-90
2022/05/24 01:27:31;;;;;;;19.83;16.50;;;;;;;14.73;94.50;99485.69;6102155;23;20029;-90
2022/05/24 01:29:58;;;;;;;18.13;15.30;;;;;;;14.75;93.95;99488.91;6101775;23;20029;-89
2022/05/24 01:38:01;;;;;;;16.95;14.40;;;;;;;14.75;94.02;99482.84;6101491;23;20065;-90
2022/05/24 01:40:31;;;;;;;19.77;15.02;;;;;;;14.69;94.46;99473.94;6102346;23;20026;-90
2022/05/24 01:43:03;;;;;;;19.17;14.52;;;;;;;14.88;94.17;99490.66;6101794;23;20023;-88
2022/05/24 01:45:37;;;;;;;19.27;14.82;;;;;;;14.70;94.46;99464.22;6105376;23;20022;-90
2022/05/24 01:48:15;;;;;;;16.23;14.52;;;;;;;14.65;94.44;99462.22;6101894;23;20165;-90
2022/05/24 01:50:47;;;;;;;16.15;14.15;;;;;;;14.71;94.41;99500.06;6102325;23;20101;-90
2022/05/24 01:56:14;;;;;;;17.58;14.52;;;;;;;14.51;93.67;99479.13;6101060;23;20081;-89
2022/05/24 01:59:03;;;;;;;18.65;14.35;;;;;;;14.72;93.74;99505.13;6101658;23;20026;-90
2022/05/24 02:01:45;;;;;;;19.08;15.18;;;;;;;14.62;93.72;99490.81;6100817;23;20105;-90
2022/05/24 02:04:12;;;;;;;17.73;14.50;;;;;;;14.57;92.19;99491.44;6100901;23;20022;-89
2022/05/24 02:06:39;;;;;;;17.40;12.30;;;;;;;14.44;89.79;99489.66;6100649;23;20479;-90
2022/05/24 02:09:08;;;;;;;14.40;10.68;;;;;;;14.52;87.91;99494.69;6100638;23;20022;-89
2022/05/24 02:11:36;;;;;;;17.27;9.98;;;;;;;14.39;86.53;99491.28;6101863;23;20022;-89
2022/05/24 02:14:10;;;;;;;13.95;10.00;;;;;;;14.46;87.20;99500.00;6101017;23;20019;-89
2022/05/24 02:16:42;;;;;;;15.10;9.60;;;;;;;14.39;87.08;99493.91;6101140;23;20085;-89
2022/05/24 02:19:10;;;;;;;18.27;9.75;;;;;;;14.26;87.62;99494.75;6106871;23;20046;-90
2022/05/24 02:21:39;;;;;;;14.60;9.32;;;;;;;14.32;87.20;99487.84;6103998;23;20447;-90
2022/05/24 02:24:16;;;;;;;13.65;9.50;;;;;;;14.20;87.89;99479.78;6103298;23;20313;-90
2022/05/24 02:26:44;;;;;;;17.60;9.85;;;;;;;14.30;88.11;99495.97;6103278;23;20023;-90
2022/05/24 02:29:12;;;;;;;13.27;9.43;;;;;;;14.29;88.50;99499.59;6102773;23;20086;-89
2022/05/24 02:31:40;;;;;;;13.38;9.50;;;;;;;14.24;88.22;99489.69;6102831;23;20014;-89
2022/05/24 02:34:07;;;;;;;19.63;10.65;;;;;;;14.24;88.68;99492.31;6102404;23;20093;-89
2022/05/24 02:36:34;;;;;;;15.75;9.60;;;;;;;14.28;88.19;99477.75;6104708;23;20113;-90
2022/05/24 02:39:01;;;;;;;16.25;10.75;;;;;;;14.22;87.81;99459.34;6103801;23;20018;-89
2022/05/24 02:41:31;;;;;;;16.58;9.27;;;;;;;14.21;88.31;99458.53;6102701;23;20026;-90
2022/05/24 02:44:04;;;;;;;12.25;9.70;;;;;;;14.23;88.67;99464.41;6102865;23;20038;-89
2022/05/24 02:46:34;;;;;;;14.70;10.18;;;;;;;14.31;88.94;99478.34;6102445;23;20069;-90
2022/05/24 02:49:04;;;;;;;20.88;10.85;;;;;;;14.32;87.84;99488.66;6102526;23;20026;-90
2022/05/24 02:51:31;;;;;;;12.52;9.85;;;;;;;14.22;86.34;99490.91;6104419;23;20051;-90
2022/05/24 02:54:00;;;;;;;12.82;9.07;;;;;;;14.09;85.75;99476.00;6103187;23;20097;-90
2022/05/24 02:56:27;;;;;;;11.57;9.18;;;;;;;14.07;85.66;99472.78;6102871;23;20038;-90
2022/05/24 02:58:55;;;;;;;14.18;8.70;;;;;;;13.96;84.54;99468.13;6102326;23;20026;-89
2022/05/24 03:01:24;;;;;;;13.50;9.13;;;;;;;14.00;85.14;99495.66;6102265;23;20024;-88
2022/05/24 03:03:54;;;;;;;15.18;8.77;;;;;;;13.96;85.73;99489.19;6102200;23;20333;-88
2022/05/24 03:06:25;;;;;;;16.02;8.27;;;;;;;14.02;84.81;99491.00;6101526;23;20029;-90
2022/05/24 03:14:17;;;;;;;12.02;7.82;;;;;;;13.97;85.26;99480.28;6101806;23;20053;-89
2022/05/24 03:16:47;;;;;;;12.10;7.60;;;;;;;14.00;85.55;99487.75;6101431;23;20384;-88
2022/05/24 03:19:15;;;;;;;16.63;8.40;;;;;;;14.00;84.95;99489.56;6102264;23;20050;-89
2022/05/24 03:21:43;;;;;;;13.63;7.70;;;;;;;13.93;84.07;99484.31;6102410;23;20018;-90
2022/05/24 03:24:10;;;;;;;11.82;7.50;;;;;;;13.97;85.08;99498.69;6102982;23;20037;-89
2022/05/24 03:26:37;;;;;;;13.00;7.85;;;;;;;13.80;85.72;99472.00;6102792;23;20030;-90
2022/05/24 03:29:05;;;;;;;10.40;7.38;;;;;;;13.94;86.44;99496.47;6101550;23;20106;-89
2022/05/24 03:31:33;;;;;;;13.88;7.13;;;;;;;13.86;84.51;99483.53;6101950;23;20274;-90
2022/05/24 03:34:03;;;;;;;14.18;6.85;;;;;;;13.85;84.97;99502.94;6102510;23;20030;-91
2022/05/24 03:36:32;;;;;;;15.07;7.22;;;;;;;13.87;85.07;99491.22;6103313;23;20022;-90
2022/05/24 03:39:15;;;;;;;11.77;7.68;;;;;;;13.84;85.74;99483.72;6102394;23;20034;-90
2022/05/24 03:41:51;;;;;;;12.93;7.25;;;;;;;13.81;85.57;99483.34;6103097;23;20018;-90
2022/05/24 03:44:39;;;;;;;12.70;7.15;;;;;;;13.74;85.58;99479.91;6103140;23;20026;-89
2022/05/24 03:47:11;;;;;;;16.90;6.93;;;;;;;13.85;84.21;99484.53;6102393;23;20014;-90
2022/05/24 03:49:38;;;;;;;9.13;6.20;;;;;;;13.81;83.20;99483.34;6103144;23;20022;-90
2022/05/24 03:52:07;;;;;;;13.55;6.50;;;;;;;13.76;83.25;99473.44;6104326;23;20308;-90
2022/05/24 03:54:33;;;;;;;13.00;6.30;;;;;;;13.84;82.82;99496.88;6103567;23;20026;-91
2022/05/24 03:59:45;;;;;;;15.70;7.07;;;;;;;13.74;82.37;99499.09;6105052;23;20061;-89
2022/05/24 04:02:12;;;;;;;11.57;6.20;;;;;;;13.77;82.82;99503.16;6105367;23;20026;-91
2022/05/24 04:04:39;;;;;;;11.65;6.35;;;;;;;13.87;82.87;99522.75;6106552;23;20029;-91
2022/05/24 04:07:08;;;;;;;11.25;5.85;;;;;;;13.83;82.97;99520.75;6106231;23;20029;-90
2022/05/24 04:09:36;;;;;;;12.40;6.07;;;;;;;13.74;81.90;99522.78;6105896;23;20018;-90
2022/05/24 04:12:03;;;;;;;10.20;5.75;;;;;;;13.77;82.23;99521.56;6106559;23;20030;-89
2022/05/24 04:14:36;;;;;;;15.68;6.65;;;;;;;13.76;82.31;99527.81;6107484;23;20395;-90
2022/05/24 04:17:03;;;;;;;10.20;5.40;;;;;;;13.76;83.54;99530.47;6107145;23;20050;-90
2022/05/24 04:19:38;;;;;;;16.33;5.90;;;;;;;13.75;84.16;99529.66;6107086;23;20030;-90
2022/05/24 04:22:08;;;;;;;12.40;5.95;;;;;;;13.65;84.86;99521.38;6107561;23;20033;-89
2022/05/24 04:24:35;;;;;;;17.13;6.65;;;;;;;13.58;85.09;99516.13;6106207;23;20360;-89
2022/05/24 04:27:06;;;;;;;12.20;5.80;;;;;;;13.50;86.18;99511.06;6106481;23;20018;-89
2022/05/24 04:29:46;;;;;;;13.75;5.82;;;;;;;13.48;86.64;99507.84;6102262;23;20062;-89
2022/05/24 04:32:31;;;;;;;11.70;6.57;;;;;;;13.47;87.03;99526.44;6102500;23;20007;-88
2022/05/24 04:35:16;;;;;;;10.70;6.50;;;;;;;13.43;88.11;99522.59;6103925;23;20026;-89
2022/05/24 04:38:00;;;;;;;9.60;6.20;;;;;;;13.28;89.16;99520.13;6102663;23;20050;-89
2022/05/24 04:50:05;;;;;;;11.27;6.57;;;;;;;13.07;92.52;99554.44;6014179;23;20038;-90
2022/05/24 05:03:00;;;;;;;12.10;5.88;;;;;;;13.06;93.71;99623.72;6060582;23;20121;-90
2022/05/24 05:05:43;;;;;;;13.57;6.38;;;;;;;12.79;94.55;99607.03;6103146;23;20101;-88
2022/05/24 05:11:40;;;;;;;11.02;5.72;;;;;;;12.86;94.89;99608.69;6104225;23;20025;-89
2022/05/24 05:14:19;;;;;;;19.98;7.07;;;;;;;12.98;95.49;99644.88;6104075;23;20029;-89
2022/05/24 05:16:46;;;;;;;15.27;6.07;;;;;;;13.00;94.98;99641.06;6103110;23;20018;-90
2022/05/24 05:19:27;;;;;;;11.23;6.80;;;;;;;12.98;95.12;99652.75;6105010;23;20491;-90
2022/05/24 05:22:42;;;;;;;13.90;6.18;;;;;;;12.69;94.36;99638.09;6105714;23;20030;-90
2022/05/24 05:32:53;;;;;;;10.30;6.03;;;;;;;12.63;95.63;99650.16;6106819;23;20041;-90
2022/05/24 05:39:29;;;;;;;14.98;5.78;;;;;;;12.58;95.44;99663.88;5875942;24;20026;-89
2022/05/24 05:44:31;;;;;;;12.32;5.97;;;;;;;12.51;94.99;99688.44;6131104;23;20022;-80
2022/05/24 05:46:58;;;;;;;12.20;5.38;;;;;;;12.46;95.59;99703.94;6131662;23;20052;-80
2022/05/24 05:49:25;;;;;;;11.45;5.55;;;;;;;12.45;96.96;99712.81;6131135;23;20375;-80
2022/05/24 05:51:51;;;;;;;11.48;5.65;;;;;;;12.43;97.54;99712.19;6131840;23;20077;-80
2022/05/24 05:54:21;;;;;;;11.27;5.60;;;;;;;12.33;95.47;99709.88;6130560;23;20101;-80
2022/05/24 05:56:48;;;;;;;10.63;4.15;;;;;;;12.26;95.28;99724.78;6131000;23;20052;-83
2022/05/24 05:59:15;;;;;;;9.05;3.85;;;;;;;12.02;94.82;99705.00;6140256;23;20053;-82
2022/05/24 06:01:42;;;;;;;9.05;3.78;;;;;;;12.00;94.83;99722.72;6140618;23;20022;-80
2022/05/24 06:04:10;;;;;;;8.10;3.55;;;;;;;12.04;95.33;99729.22;6136765;23;20018;-81
2022/05/24 06:06:39;;;;;;;9.52;3.78;;;;;;;11.91;96.50;99718.59;6136248;23;20030;-82
2022/05/24 06:09:06;;;;;;;6.35;3.60;;;;;;;11.88;95.38;99721.59;6134157;23;20018;-83
2022/05/24 06:11:34;;;;;;;6.97;3.72;;;;;;;11.78;95.48;99721.09;6135711;23;20026;-80
2022/05/24 06:14:01;;;;;;;7.13;3.72;;;;;;;11.75;95.41;99734.53;6135217;23;20022;-78
2022/05/24 06:16:28;;;;;;;5.22;3.40;;;;;;;11.81;95.85;99733.84;6134729;23;20032;-80
2022/05/24 06:18:55;;;;;;;6.45;3.85;;;;;;;11.91;96.83;99729.06;6133446;23;20022;-79
2022/05/24 06:21:21;;;;;;;6.55;3.70;;;;;;;11.96;95.95;99732.78;6136852;23;20080;-82
2022/05/24 06:23:49;;;;;;;5.60;3.53;;;;;;;12.10;96.73;99744.22;6134438;23;20050;-83
2022/05/24 06:26:18;;;;;;;8.50;3.85;;;;;;;12.17;95.90;99752.13;6135508;23;20026;-79
2022/05/24 06:28:46;;;;;;;7.72;3.30;;;;;;;12.09;95.49;99755.69;6135436;23;20082;-82
2022/05/24 06:31:14;;;;;;;5.60;3.30;;;;;;;12.13;94.58;99754.31;6136181;23;20030;-81
2022/05/24 06:33:40;;;;;;;6.53;3.20;;;;;;;12.11;94.97;99766.81;6135643;23;20490;-81
2022/05/24 06:36:07;;;;;;;5.75;3.22;;;;;;;12.11;95.24;99766.81;6138685;23;20060;-81
2022/05/24 06:38:37;;;;;;;7.50;3.10;;;;;;;12.06;95.33;99753.44;6138129;23;20033;-81
2022/05/24 06:41:04;;;;;;;6.50;3.38;;;;;;;12.26;95.09;99761.50;6139626;23;20026;-84
2022/05/24 06:43:31;;;;;;;5.60;3.00;;;;;;;12.44;94.71;99766.28;6141560;23;20018;-83
2022/05/24 06:45:59;;;;;;;7.63;3.42;;;;;;;12.40;93.76;99760.59;6140869;23;20026;-82
2022/05/24 06:48:25;;;;;;;4.75;3.10;;;;;;;12.38;95.22;99759.16;6141690;23;20026;-82
2022/05/24 06:50:52;;;;;;;6.65;3.45;;;;;;;12.57;93.82;99755.91;6143381;23;20025;-83
2022/05/24 06:53:19;;;;;;;5.22;2.83;;;;;;;12.79;93.71;99764.53;6141445;23;20022;-84
2022/05/24 06:55:45;;;;;;;7.65;3.53;;;;;;;12.76;92.84;99765.72;6137988;23;20268;-83
2022/05/24 06:58:12;;;;;;;5.72;3.00;;;;;;;13.08;91.71;99776.66;6139719;23;20037;-83
2022/05/24 07:03:27;;;;;;;4.15;2.85;;;;;;;13.48;89.36;99783.78;6140653;23;20044;-82
2022/05/24 07:05:54;;;;;;;3.63;2.78;;;;;;;13.53;89.40;99788.44;6140860;23;20058;-82
2022/05/24 07:08:21;;;;;;;8.75;3.05;;;;;;;13.65;89.90;99788.72;6138824;23;20026;-83
2022/05/24 07:10:47;;;;;;;4.97;2.97;;;;;;;13.38;88.97;99796.44;6138566;23;20022;-82
2022/05/24 07:13:18;;;;;;;6.28;3.03;;;;;;;13.80;86.90;99799.88;6137722;23;20130;-83
2022/05/24 07:15:45;;;;;;;8.13;3.33;;;;;;;14.58;86.90;99804.53;6131785;23;20064;-83
2022/05/24 07:18:12;;;;;;;7.13;3.50;;;;;;;15.77;81.60;99806.13;6129674;23;20088;-81
2022/05/24 07:20:41;;;;;;;6.50;2.72;;;;;;;17.68;76.09;99801.16;6131215;23;20065;-81
2022/05/24 07:23:10;;;;;;;7.43;3.20;;;;;;;18.82;70.24;99822.16;6131018;23;20025;-83
2022/05/24 07:25:37;;;;;;;6.85;3.40;;;;;;;18.08;67.94;99820.78;6132554;23;20034;-84
2022/05/24 07:28:05;;;;;;;6.47;3.13;;;;;;;18.35;67.28;99823.06;6133037;23;20032;-84
2022/05/24 07:30:32;;;;;;;7.57;3.13;;;;;;;18.10;68.90;99820.56;6134615;23;20053;-82
2022/05/24 07:32:59;;;;;;;5.30;3.58;;;;;;;17.94;68.17;99831.78;6133813;23;20081;-85
2022/05/24 07:35:27;;;;;;;5.15;3.53;;;;;;;18.42;68.33;99835.19;6134940;23;20033;-85
2022/05/24 07:37:55;;;;;;;7.22;4.00;;;;;;;19.26;66.44;99822.59;6134986;23;20032;-83
2022/05/24 07:45:54;;;;;;;9.50;3.55;;;;;;;18.39;66.45;99825.03;6134790;23;20041;-83
2022/05/24 07:48:21;;;;;;;5.97;3.55;;;;;;;18.46;68.72;99827.56;6134892;23;20101;-84
2022/05/24 07:50:48;;;;;;;8.10;3.33;;;;;;;18.74;65.81;99833.06;6135101;23;20105;-84
2022/05/24 07:53:16;;;;;;;6.28;3.30;;;;;;;18.07;69.90;99824.44;6135832;23;20108;-84
2022/05/24 07:55:44;;;;;;;5.95;3.63;;;;;;;18.77;65.07;99829.97;6134012;23;20616;-82
2022/05/24 07:58:11;;;;;;;7.57;3.80;;;;;;;19.59;63.39;99834.44;6134485;23;20064;-83
2022/05/24 08:00:38;;;;;;;5.82;3.72;;;;;;;19.25;62.06;99825.47;6137074;23;20060;-82
2022/05/24 08:03:06;;;;;;;7.10;3.88;;;;;;;19.62;60.29;99831.34;6135684;23;20022;-82
2022/05/24 08:05:34;;;;;;;8.15;3.88;;;;;;;19.35;59.75;99828.38;6135586;23;20471;-81
2022/05/24 08:08:01;;;;;;;7.00;3.50;;;;;;;19.82;60.32;99829.09;6133661;23;20064;-78
2022/05/24 08:10:30;;;;;;;8.10;3.63;;;;;;;19.46;58.46;99822.22;6134175;23;20026;-82
2022/05/24 08:12:57;;;;;;;7.53;3.50;;;;;;;18.95;60.46;99817.63;6134617;23;20033;-81
2022/05/24 08:15:25;;;;;;;5.43;3.20;;;;;;;19.34;62.43;99816.94;6131467;23;20026;-79
2022/05/24 08:17:52;;;;;;;5.47;3.53;;;;;;;20.66;57.55;99835.41;6130708;23;20026;-80
2022/05/24 08:20:19;;;;;;;6.18;3.92;;;;;;;19.65;58.39;99834.31;6131634;23;20068;-82
2022/05/24 08:22:47;;;;;;;10.82;4.47;;;;;;;18.62;61.38;99840.19;6133631;23;20026;-81
2022/05/24 08:25:14;;;;;;;9.95;3.80;;;;;;;17.65;64.75;99849.19;6134790;23;20026;-81
2022/05/24 08:27:43;;;;;;;7.90;4.70;;;;;;;16.83;65.54;99846.72;6135123;23;20037;-81
2022/05/24 08:30:12;;;;;;;6.45;3.80;;;;;;;16.29;69.18;99854.38;6133857;23;20058;-82
2022/05/24 08:32:39;;;;;;;7.07;3.40;;;;;;;16.21;68.40;99852.81;6134605;23;20057;-81
2022/05/24 08:35:08;;;;;;;5.22;3.42;;;;;;;16.85;67.67;99855.25;6133117;23;20026;-81
2022/05/24 08:37:35;;;;;;;6.38;3.50;;;;;;;16.59;66.75;99850.94;6132458;23;20065;-82
2022/05/24 08:40:01;;;;;;;5.60;3.10;;;;;;;16.22;67.30;99855.22;6130809;23;20081;-82
2022/05/24 08:42:39;;;;;;;10.70;3.50;;;;;;;15.82;69.57;99859.06;6132298;23;20359;-83
2022/05/24 08:50:52;;;;;;;5.85;3.10;;;;;;;16.66;66.87;99872.03;6134183;23;20537;-83
2022/05/24 08:53:26;;;;;;;8.43;3.42;;;;;;;17.27;65.39;99878.47;6134501;23;20346;-85
2022/05/24 08:55:54;;;;;;;7.07;3.13;;;;;;;16.95;68.68;99869.81;6134594;23;20418;-85
2022/05/24 08:58:31;;;;;;;4.50;3.10;;;;;;;16.92;65.06;99876.34;6134165;23;20026;-82
2022/05/24 09:00:59;;;;;;;6.03;3.00;;;;;;;17.65;63.46;99870.34;6135166;23;20026;-83
2022/05/24 09:03:26;;;;;;;3.90;2.70;;;;;;;19.07;59.50;99880.25;6134849;23;20048;-82
2022/05/24 09:06:01;;;;;;;8.45;2.40;;;;;;;18.29;57.25;99876.94;6136009;23;20029;-83
2022/05/24 09:08:29;;;;;;;4.78;2.65;;;;;;;18.54;59.16;99896.13;6135573;23;20034;-84
2022/05/24 09:11:05;;;;;;;4.55;2.28;;;;;;;17.86;58.64;99878.69;6134517;23;20026;-85
2022/05/24 09:13:56;;;;;;;5.47;2.63;;;;;;;17.17;60.78;99894.81;6133808;23;20041;-82
2022/05/24 09:16:35;;;;;;;4.70;2.55;;;;;;;16.60;62.83;99900.09;6135033;23;20026;-82
2022/05/24 09:19:05;;;;;;;5.97;2.45;;;;;;;16.30;65.26;99903.53;6135843;23;20562;-81
2022/05/24 09:21:35;;;;;;;5.47;3.13;;;;;;;15.93;65.96;99901.44;6136512;23;20025;-82
2022/05/24 09:24:09;;;;;;;4.20;2.70;;;;;;;15.76;65.73;99915.28;6135758;23;20022;-81
2022/05/24 09:27:03;;;;;;;4.50;2.78;;;;;;;15.56;68.03;99904.78;6137207;23;20034;-81
2022/05/24 09:29:31;;;;;;;4.20;2.85;;;;;;;16.06;65.11;99908.50;6135958;23;20463;-82
2022/05/24 09:32:04;;;;;;;4.97;2.80;;;;;;;16.62;64.05;99917.56;6135592;23;20026;-81
2022/05/24 09:34:33;;;;;;;3.05;2.40;;;;;;;17.54;61.66;99922.94;6136567;23;20030;-82
2022/05/24 09:37:02;;;;;;;5.30;2.40;;;;;;;17.65;60.80;99928.56;6135941;23;20026;-82
2022/05/24 09:39:31;;;;;;;6.75;2.60;;;;;;;17.63;59.92;99928.78;6134897;23;20336;-81
2022/05/24 09:41:59;;;;;;;6.45;3.00;;;;;;;17.09;60.01;99924.16;6135791;23;20040;-81
2022/05/24 09:44:28;;;;;;;3.63;2.30;;;;;;;16.86;60.91;99933.50;6138118;23;20029;-83
2022/05/24 09:46:56;;;;;;;4.07;2.58;;;;;;;17.19;61.33;99927.13;6138063;23;20022;-82
2022/05/24 09:49:27;;;;;;;6.88;2.63;;;;;;;17.19;59.52;99937.72;6138500;23;20052;-82
2022/05/24 09:51:56;;;;;;;7.18;2.50;;;;;;;17.50;58.62;99937.63;6138197;23;20025;-80
2022/05/24 09:54:27;;;;;;;4.07;2.75;;;;;;;17.46;60.16;99940.97;6138363;23;20029;-82
2022/05/24 09:57:03;;;;;;;5.38;2.60;;;;;;;17.48;58.18;99942.34;6137206;23;20063;-81
2022/05/24 09:59:31;;;;;;;3.47;2.47;;;;;;;18.13;56.45;99942.69;6135577;23;20060;-83
2022/05/24 10:01:57;;;;;;;3.55;2.28;;;;;;;18.43;55.18;99941.94;6137905;23;20026;-83
2022/05/24 10:04:34;;;;;;;3.38;2.35;;;;;;;18.51;55.71;99941.59;6137199;23;20033;-83
2022/05/24 10:07:02;;;;;;;2.95;2.15;;;;;;;18.66;54.94;99933.28;6136926;23;20521;-82
2022/05/24 10:10:01;;;;;;;4.05;2.70;;;;;;;18.36;53.92;99931.44;6137502;23;20049;-82
2022/05/24 10:12:37;;;;;;;5.82;2.85;;;;;;;18.45;55.91;99930.06;6139784;23;20026;-82
2022/05/24 10:15:14;;;;;;;5.88;2.33;;;;;;;18.83;53.05;99940.38;6151797;23;20017;-81
2022/05/24 10:17:54;;;;;;;5.10;2.40;;;;;;;18.74;53.93;99943.56;6152154;23;20026;-82
2022/05/24 10:20:29;;;;;;;5.40;2.10;;;;;;;18.78;53.29;99932.31;6143771;23;20037;-83
2022/05/24 10:23:04;;;;;;;2.45;2.22;;;;;;;18.33;53.78;99946.97;6137332;23;20026;-83
2022/05/24 10:25:38;;;;;;;5.95;2.38;;;;;;;17.86;54.75;99933.47;6136676;23;20053;-81
2022/05/24 10:28:15;;;;;;;8.20;2.70;;;;;;;17.30;56.12;99942.31;6135064;23;20356;-82
2022/05/24 10:30:58;;;;;;;4.93;2.50;;;;;;;16.76;56.75;99962.22;6139994;23;20026;-84
2022/05/24 10:39:26;;;;;;;4.63;3.58;;;;;;;16.76;59.87;99969.31;6135022;23;20470;-81
2022/05/24 10:42:02;;;;;;;10.13;3.60;;;;;;;17.28;58.50;99976.09;6136226;23;20026;-82
2022/05/24 10:44:36;;;;;;;7.43;2.85;;;;;;;17.48;57.62;99965.34;6135530;23;20478;-82
2022/05/24 10:47:07;;;;;;;9.50;3.40;;;;;;;18.08;57.57;99971.69;6134575;23;20061;-84
2022/05/24 10:49:41;;;;;;;6.70;3.90;;;;;;;18.17;57.42;99964.25;6136046;23;20026;-81
2022/05/24 10:52:17;;;;;;;4.07;2.70;;;;;;;19.00;53.54;99955.63;6135662;23;20029;-82
2022/05/24 10:54:50;;;;;;;5.47;3.13;;;;;;;19.38;50.87;99963.97;6136067;23;20022;-82
2022/05/24 10:57:20;;;;;;;;;;;;;;;18.35;53.91;99966.91;6136847;23;20113;-82
2022/05/24 10:59:58;;;;;;;6.90;3.20;;;;;;;18.54;54.71;99963.16;6135207;23;19917;-82
2022/05/24 11:02:33;;;;;;;5.65;2.85;;;;;;;18.55;53.63;99961.31;6135808;23;20022;-83
2022/05/24 11:05:07;;;;;;;6.25;2.90;;;;;;;18.63;53.59;99969.00;6134378;23;20018;-83
2022/05/24 11:07:36;;;;;;;7.88;3.15;;;;;;;18.27;54.90;99971.69;6135200;23;20363;-82
2022/05/24 11:10:09;;;;;;;5.10;2.55;;;;;;;18.14;55.88;99970.00;6134586;23;20030;-82
2022/05/24 11:12:41;;;;;;;5.65;3.10;;;;;;;17.48;56.37;99966.16;6137505;23;20022;-82
2022/05/24 11:15:15;;;;;;;3.97;2.80;;;;;;;17.72;57.21;99977.75;6134352;23;20033;-81
2022/05/24 11:17:42;;;;;;;4.35;2.60;;;;;;;17.97;56.11;99959.16;6134409;23;20040;-80
2022/05/24 11:20:11;;;;;;;6.40;2.72;;;;;;;17.83;56.01;99966.47;6134186;23;20033;-80
2022/05/24 11:22:44;;;;;;;7.00;2.63;;;;;;;17.85;56.86;99968.88;6134404;23;20083;-81
2022/05/24 11:25:19;;;;;;;9.18;4.28;;;;;;;17.84;58.16;99983.97;6134444;23;20063;-82
2022/05/24 11:27:50;;;;;;;5.53;2.97;;;;;;;17.68;57.83;99979.22;6135359;23;20026;-80
2022/05/24 11:30:31;;;;;;;7.80;2.80;;;;;;;17.63;56.81;99978.22;6136071;23;20060;-81
2022/05/24 11:33:10;;;;;;;4.35;2.70;;;;;;;17.49;55.57;99978.34;6134750;23;20029;-80
2022/05/24 11:35:39;;;;;;;4.65;2.33;;;;;;;17.71;55.36;99984.09;6134052;23;20049;-79
2022/05/24 11:38:14;;;;;;;4.65;2.50;;;;;;;18.14;55.19;99981.38;6133817;23;20049;-81
2022/05/24 11:40:57;;;;;;;5.10;2.85;;;;;;;18.73;53.46;99990.47;6135502;23;20026;-80
2022/05/24 11:44:00;;;;;;;5.75;2.60;;;;;;;18.84;55.24;99989.72;6135301;23;20049;-80
2022/05/24 11:46:41;;;;;;;3.95;2.38;;;;;;;19.64;52.81;99989.31;6133824;23;20026;-81
2022/05/24 11:49:14;;;;;;;3.72;2.42;;;;;;;19.89;52.23;99984.53;6132639;23;20030;-80
2022/05/24 11:51:43;;;;;;;;;;;;;;;19.89;52.52;99989.84;6135336;23;20332;-82
2022/05/24 11:54:48;;;;;;;5.22;2.30;;;;;;;19.89;50.40;99994.34;6135802;23;19917;-81
2022/05/24 11:57:40;;;;;;;3.78;2.40;;;;;;;19.47;49.84;99997.09;6123237;23;20026;-82
2022/05/24 12:00:09;;;;;;;3.92;2.50;;;;;;;19.67;50.48;99985.38;6137126;23;20128;-80
2022/05/24 12:08:37;;;;;;;8.05;2.40;;;;;;;19.42;51.79;99998.81;6137143;23;20032;-80
2022/05/24 12:11:32;;;;;;;4.97;2.10;;;;;;;19.96;50.34;100005.66;6134640;23;20033;-80
2022/05/24 12:14:16;;;;;;;5.20;2.28;;;;;;;20.58;49.80;99997.94;6132360;23;20018;-83
2022/05/24 12:16:47;;;;;;;4.60;2.28;;;;;;;20.66;47.24;100000.22;6134991;23;20041;-81
2022/05/24 12:19:42;;;;;;;2.75;1.70;;;;;;;20.40;46.21;99984.81;6134004;23;20026;-81
2022/05/24 12:22:11;;;;;;;2.47;1.98;;;;;;;20.72;47.22;99998.47;6134573;23;20026;-80
2022/05/24 12:24:53;;;;;;;4.35;2.60;;;;;;;21.10;46.60;99998.63;6134453;23;20408;-82
2022/05/24 12:27:23;;;;;;;2.50;1.67;;;;;;;20.83;46.54;99993.06;6132971;23;20018;-80
2022/05/24 12:29:54;;;;;;;5.05;2.40;;;;;;;20.40;46.39;99996.25;6133091;23;20033;-81
2022/05/24 12:32:23;;;;;;;5.47;2.08;;;;;;;20.92;46.58;100001.47;6134407;23;20073;-81
2022/05/24 12:34:50;;;;;;;4.93;2.85;;;;;;;20.40;46.79;99990.94;6134399;23;20049;-80
2022/05/24 12:37:24;;;;;;;6.10;2.42;;;;;;;20.11;48.65;99992.72;6134511;23;20371;-80
2022/05/24 12:40:14;;;;;;;5.55;2.40;;;;;;;20.36;47.43;99994.25;6135333;23;20021;-81
2022/05/24 12:42:50;;;;;;;3.85;2.10;;;;;;;20.98;46.43;99999.72;6129861;23;20026;-82
2022/05/24 12:45:26;;;;;;;2.33;2.00;;;;;;;21.08;48.73;100000.72;6134187;23;20022;-81
2022/05/24 12:47:57;;;;;;;4.25;2.50;;;;;;;21.12;46.31;99996.53;6133349;23;20079;-80
2022/05/24 12:50:28;;;;;;;3.60;2.40;;;;;;;20.74;46.00;99997.19;6135755;23;20073;-81
2022/05/24 12:53:03;;;;;;;7.13;2.17;;;;;;;20.49;47.18;99988.72;6135940;23;20529;-80
2022/05/24 12:58:26;;;;;;;8.80;3.00;;;;;;;19.49;51.38;100000.31;6137093;23;20110;-79
2022/05/24 13:01:14;;;;;;;8.70;2.78;;;;;;;19.06;51.49;99997.94;6135968;23;20026;-81
2022/05/24 13:03:53;;;;;;;3.63;2.50;;;;;;;18.36;54.62;100015.38;6136842;23;20045;-80
2022/05/24 13:06:26;;;;;;;9.50;3.20;;;;;;;17.44;61.93;100025.00;6135671;23;20037;-80
2022/05/24 13:09:16;;;;;;;5.72;3.20;;;;;;;17.08;64.60;100020.34;6136805;23;20053;-81
2022/05/24 13:11:44;;;;;;;3.47;3.15;;;;;;;16.71;67.41;100025.44;6138772;23;20065;-85
2022/05/24 13:14:17;;;;;;;5.55;3.22;;;;;;;16.32;69.21;100033.50;6138482;23;20072;-81